»·PEaware :: N906AC KSNA-KSBA

N906AC :: KSNA-KSBA

FLIGHT INFORMATION

Flight Status: Arrived
Operator: Privately registered:
United States
More flights under this callsign
Pilot: Amos W. (244)
Aircraft: BEECH AIRCRAFT BARON
(BE58)
More flights by this aircraft type
Origin: KSNA John Wayne-Orange Co
United States
Destination: KSBA Santa Barbara Mun
United States
More flights between these airports :: More routes between these airports
Route: SMO VNY FIM
File this flight plan on PilotEdge
Remarks: Mini Route northbound
Altitude:
(Current/Filed)
6,500ft
Speed:
(Current/Filed)
152kts
Departed: 08-Sep-18 12:15 PM
Arrived: 08-Sep-18 01:11 PM
Distance/Time
Traveled:
108nm/0:56
Distance/Time
To Go:
Arrived

Flight Plot

Page will automatically refresh every two minutes.

Flight plan parsing failed; only flown route is shown


Map Options




Map Legend


Flown Route
Filed Route
Departure Airport
Arrival Airport
Navaid (VOR, NDB)
Fix

Horizontal Profiles

Position Reports

Time Latitude Longitude Heading Altitude Ground
Speed
08-Sep-18 12:03 33.667941 -117.870902 36 59ft 0kts
08-Sep-18 12:04 33.667942 -117.870901 36 59ft 0kts
08-Sep-18 12:05 33.667942 -117.870901 36 59ft 0kts
08-Sep-18 12:06 33.667942 -117.870901 36 59ft 0kts
08-Sep-18 12:07 33.667943 -117.870901 36 59ft 0kts
08-Sep-18 12:08 33.667943 -117.870900 36 59ft 0kts
08-Sep-18 12:09 33.667943 -117.870900 36 59ft 0kts
08-Sep-18 12:10 33.667944 -117.870900 36 59ft 0kts
08-Sep-18 12:11 33.667944 -117.870899 36 59ft 0kts
08-Sep-18 12:12 33.669426 -117.870921 38 59ft 16kts
08-Sep-18 12:13 33.672723 -117.867473 47 59ft 15kts
08-Sep-18 12:14 33.675884 -117.865925 27 59ft 23kts
08-Sep-18 12:15 33.679553 -117.863773 4 59ft 0kts
08-Sep-18 12:16 33.679751 -117.863898 298 59ft 0kts
08-Sep-18 12:17 33.676763 -117.866304 206 59ft 72kts
08-Sep-18 12:18 33.659451 -117.888210 250 1014ft 111kts
08-Sep-18 12:19 33.645554 -117.922919 237 2238ft 134kts
08-Sep-18 12:20 33.628184 -117.963548 246 2497ft 173kts
08-Sep-18 12:21 33.619451 -117.986924 249 2898ft 143kts
08-Sep-18 12:22 33.605377 -118.033610 261 3073ft 154kts
08-Sep-18 12:23 33.628308 -118.074172 317 3237ft 177kts
08-Sep-18 12:24 33.668944 -118.116773 319 2554ft 185kts
08-Sep-18 12:25 33.709422 -118.151646 326 2454ft 175kts
08-Sep-18 12:26 33.743628 -118.188041 311 2587ft 165kts
08-Sep-18 12:27 33.763502 -118.213152 312 2515ft 169kts
08-Sep-18 12:30 33.850077 -118.292554 322 2490ft 173kts
08-Sep-18 12:31 33.881351 -118.320373 325 2117ft 185kts
08-Sep-18 12:32 33.915828 -118.352505 295 2756ft 143kts
08-Sep-18 12:33 33.945309 -118.390842 311 2476ft 169kts
08-Sep-18 12:34 33.975275 -118.423527 318 2544ft 167kts
08-Sep-18 12:35 34.011044 -118.458271 321 2630ft 171kts
08-Sep-18 12:36 34.050584 -118.491900 325 2642ft 154kts
08-Sep-18 12:37 34.076858 -118.512073 328 2804ft 164kts
08-Sep-18 12:38 34.123505 -118.518449 359 2779ft 173kts
08-Sep-18 12:39 34.157186 -118.517273 2 2634ft 175kts
08-Sep-18 12:40 34.204134 -118.513060 359 2994ft 155kts
08-Sep-18 12:41 34.233699 -118.524024 323 3928ft 125kts
08-Sep-18 12:42 34.246039 -118.536737 313 4178ft 142kts
08-Sep-18 12:43 34.259724 -118.581110 287 5202ft 129kts
08-Sep-18 12:44 34.272000 -118.624586 292 5973ft 138kts
08-Sep-18 12:45 34.286859 -118.667101 286 6538ft 147kts
08-Sep-18 12:46 34.303230 -118.713837 296 6611ft 168kts
08-Sep-18 12:47 34.320499 -118.767639 291 6502ft 171kts
08-Sep-18 12:48 34.337559 -118.820938 292 6502ft 169kts
08-Sep-18 12:49 34.354523 -118.874359 292 6492ft 169kts
08-Sep-18 12:50 34.360931 -118.930269 271 6500ft 171kts
08-Sep-18 12:51 34.359689 -118.987960 271 6502ft 171kts
08-Sep-18 12:52 34.358409 -119.045693 271 6504ft 171kts
08-Sep-18 12:53 34.357127 -119.103483 271 6506ft 171kts
08-Sep-18 12:54 34.355845 -119.161408 271 6506ft 172kts
08-Sep-18 12:55 34.354576 -119.219214 271 6506ft 172kts
08-Sep-18 12:56 34.353313 -119.277832 271 6519ft 185kts
08-Sep-18 12:57 34.352117 -119.338027 271 6503ft 174kts
08-Sep-18 12:58 34.350882 -119.396292 271 6506ft 172kts
08-Sep-18 12:59 34.349653 -119.454237 271 6506ft 172kts
08-Sep-18 13:00 34.348419 -119.512135 271 6504ft 172kts
08-Sep-18 13:01 34.347103 -119.569392 271 6728ft 160kts
08-Sep-18 13:02 34.346610 -119.621628 274 7178ft 152kts
08-Sep-18 13:03 34.347728 -119.672809 278 7164ft 138kts
08-Sep-18 13:04 34.353337 -119.722985 285 6570ft 148kts
08-Sep-18 13:05 34.352889 -119.767519 208 4625ft 159kts
08-Sep-18 13:06 34.332988 -119.736417 56 3036ft 140kts
08-Sep-18 13:07 34.364878 -119.726886 332 3175ft 115kts
08-Sep-18 13:08 34.395768 -119.747330 336 2825ft 122kts
08-Sep-18 13:09 34.415576 -119.757038 332 2467ft 121kts
08-Sep-18 13:10 34.432680 -119.768570 338 2289ft 133kts
08-Sep-18 13:11 34.442435 -119.806400 264 1921ft 131kts
08-Sep-18 13:12 34.437269 -119.842375 188 568ft 95kts
08-Sep-18 13:13 34.423661 -119.837646 73 13ft 0kts
08-Sep-18 13:14 34.424481 -119.836076 74 13ft 0kts
08-Sep-18 13:15 34.424498 -119.836032 255 13ft 0kts
08-Sep-18 13:16 34.424498 -119.836032 255 13ft 0kts
08-Sep-18 13:17 34.424498 -119.836033 255 13ft 0kts
08-Sep-18 13:18 34.424498 -119.836033 255 13ft 0kts
08-Sep-18 13:19 34.424498 -119.836034 255 13ft 0kts
08-Sep-18 13:20 34.424498 -119.836034 255 13ft 0kts
08-Sep-18 13:21 34.424497 -119.836035 255 13ft 0kts
08-Sep-18 13:22 34.424497 -119.836035 255 13ft 0kts
08-Sep-18 13:23 34.424497 -119.836036 255 13ft 0kts
08-Sep-18 13:24 34.424497 -119.836036 255 13ft 0kts
08-Sep-18 13:25 34.424497 -119.836037 255 13ft 0kts
08-Sep-18 13:26 34.424497 -119.836037 255 13ft 0kts
08-Sep-18 13:27 34.424497 -119.836038 255 13ft 0kts

Navigation Log

Ident Type
Flight plan parsing failed, navigation log unavailable